Observation data for Wolfforth on 02/14/2020      Previous  Date  Next       Current Mesonet Observations  Soil Data  Daily Summary Page  Observations in Plain Language
KWOS 140600Z 12012KT M03/M03 A3027 RMK A01 T10271034  RH  096%=      5-min Rain = 0
KWOS 140605Z 13012KT M03/M03 A3027 RMK A01 T10271034  RH  096%=      5-min Rain = 0
KWOS 140610Z 13012KT M03/M04 A3027 RMK A01 T10281035  RH  095%=      5-min Rain = 0
KWOS 140615Z 12012KT M03/M04 A3027 RMK A01 T10281035  RH  095%=      5-min Rain = 0
KWOS 140620Z 12015KT M03/M04 A3027 RMK A01 T10271035  RH  095%=      5-min Rain = 0
KWOS 140625Z 12013KT M03/M04 A3027 RMK A01 T10281036  RH  095%=      5-min Rain = 0
KWOS 140630Z 12012G18KT M03/M04 A3027 RMK A01 T10291037  RH  095%=      5-min Rain = 0
KWOS 140635Z 12012KT M03/M04 A3027 RMK A01 T10301037  RH  095%=      5-min Rain = 0
KWOS 140640Z 12013KT M03/M04 A3027 RMK A01 T10301038  RH  095%=      5-min Rain = 0
KWOS 140645Z 12012KT M03/M04 A3027 RMK A01 T10311039  RH  095%=      5-min Rain = 0
KWOS 140650Z 12011KT M03/M04 A3028 RMK A01 T10311039  RH  095%=      5-min Rain = 0
KWOS 140655Z 12012KT M03/M04 A3028 RMK A01 T10321039  RH  095%=      5-min Rain = 0
KWOS 140700Z 12010KT M03/M04 A3028 RMK A01 T10321040  RH  095%=      5-min Rain = 0
KWOS 140705Z 12011KT M03/M04 A3028 RMK A01 T10331040  RH  095%=      5-min Rain = 0
KWOS 140710Z 12010KT M03/M04 A3028 RMK A01 T10331040  RH  095%=      5-min Rain = 0
KWOS 140715Z 12010KT M03/M04 A3028 RMK A01 T10341041  RH  095%=      5-min Rain = 0
KWOS 140720Z 12011KT M03/M04 A3028 RMK A01 T10341041  RH  095%=      5-min Rain = 0
KWOS 140725Z 12010KT M04/M04 A3028 RMK A01 T10351042  RH  095%=      5-min Rain = 0
KWOS 140730Z 12011KT M04/M04 A3028 RMK A01 T10351042  RH  095%=      5-min Rain = 0
KWOS 140735Z 12011KT M04/M04 A3028 RMK A01 T10351042  RH  095%=      5-min Rain = 0
KWOS 140740Z 12011KT M04/M04 A3028 RMK A01 T10351042  RH  095%=      5-min Rain = 0
KWOS 140745Z 12010KT M04/M04 A3028 RMK A01 T10361043  RH  095%=      5-min Rain = 0
KWOS 140750Z 12010KT M04/M04 A3028 RMK A01 T10371044  RH  095%=      5-min Rain = 0
KWOS 140755Z 12008KT M04/M05 A3028 RMK A01 T10381045  RH  095%=      5-min Rain = 0
KWOS 140800Z 12009KT M04/M05 A3028 RMK A01 T10381045  RH  096%=      5-min Rain = 0
KWOS 140805Z 12010KT M04/M05 A3029 RMK A01 T10381045  RH  096%=      5-min Rain = 0
KWOS 140810Z 12009KT M04/M04 A3029 RMK A01 T10381044  RH  096%=      5-min Rain = 0
KWOS 140815Z 12010KT M04/M05 A3029 RMK A01 T10391045  RH  096%=      5-min Rain = 0
KWOS 140820Z 13009KT M04/M05 A3029 RMK A01 T10391045  RH  096%=      5-min Rain = 0
KWOS 140825Z 13010KT M04/M05 A3029 RMK A01 T10391045  RH  096%=      5-min Rain = 0
KWOS 140830Z 13009KT M04/M05 A3029 RMK A01 T10391045  RH  096%=      5-min Rain = 0
KWOS 140835Z 13009KT M04/M04 A3029 RMK A01 T10381044  RH  096%=      5-min Rain = 0
KWOS 140840Z 12010KT M04/M04 A3029 RMK A01 T10381043  RH  096%=      5-min Rain = 0
KWOS 140845Z 13010KT M04/M04 A3029 RMK A01 T10371043  RH  096%=      5-min Rain = 0
KWOS 140850Z 13009KT M04/M04 A3029 RMK A01 T10371043  RH  096%=      5-min Rain = 0
KWOS 140855Z 13011KT M04/M04 A3029 RMK A01 T10371043  RH  096%=      5-min Rain = 0
KWOS 140900Z 13010KT M04/M04 A3029 RMK A01 T10371043  RH  096%=      5-min Rain = 0
KWOS 140905Z 13009KT M04/M04 A3029 RMK A01 T10371042  RH  096%=      5-min Rain = 0
KWOS 140910Z 13009KT M04/M04 A3029 RMK A01 T10361042  RH  097%=      5-min Rain = 0
KWOS 140915Z 13009KT M04/M04 A3029 RMK A01 T10361041  RH  097%=      5-min Rain = 0
KWOS 140920Z 13009KT M04/M04 A3029 RMK A01 T10351041  RH  097%=      5-min Rain = 0
KWOS 140925Z 13009KT M04/M04 A3029 RMK A01 T10351040  RH  097%=      5-min Rain = 0
KWOS 140930Z 13009KT M03/M04 A3029 RMK A01 T10341040  RH  096%=      5-min Rain = 0
KWOS 140935Z 13009KT M04/M04 A3029 RMK A01 T10351040  RH  096%=      5-min Rain = 0
KWOS 140940Z 12008KT M04/M04 A3029 RMK A01 T10351040  RH  096%=      5-min Rain = 0
KWOS 140945Z 13007KT M04/M04 A3029 RMK A01 T10351040  RH  096%=      5-min Rain = 0
KWOS 140950Z 13008KT M04/M04 A3029 RMK A01 T10351041  RH  096%=      5-min Rain = 0
KWOS 140955Z 13008KT M04/M04 A3029 RMK A01 T10361041  RH  097%=      5-min Rain = 0
KWOS 141000Z 13008KT M04/M04 A3029 RMK A01 T10361041  RH  097%=      5-min Rain = 0
KWOS 141005Z 12008KT M04/M04 A3029 RMK A01 T10361041  RH  097%=      5-min Rain = 0
KWOS 141010Z 12008KT M04/M04 A3029 RMK A01 T10361041  RH  097%=      5-min Rain = 0
KWOS 141015Z 12008KT M04/M04 A3029 RMK A01 T10361041  RH  097%=      5-min Rain = 0
KWOS 141020Z 13008KT M04/M04 A3029 RMK A01 T10361041  RH  097%=      5-min Rain = 0
KWOS 141025Z 12008KT M04/M04 A3029 RMK A01 T10361041  RH  097%=      5-min Rain = 0
KWOS 141030Z 13008KT M04/M04 A3029 RMK A01 T10361041  RH  097%=      5-min Rain = 0
KWOS 141035Z 12008KT M04/M04 A3028 RMK A01 T10361041  RH  097%=      5-min Rain = 0
KWOS 141040Z 13007KT M04/M04 A3028 RMK A01 T10351040  RH  097%=      5-min Rain = 0
KWOS 141045Z 12008KT M04/M04 A3028 RMK A01 T10351041  RH  097%=      5-min Rain = 0
KWOS 141050Z 12008KT M04/M04 A3028 RMK A01 T10361041  RH  097%=      5-min Rain = 0
KWOS 141055Z 11007KT M04/M04 A3029 RMK A01 T10361042  RH  097%=      5-min Rain = 0
KWOS 141100Z 12008KT M04/M04 A3029 RMK A01 T10371043  RH  096%=      5-min Rain = 0
KWOS 141105Z 11008KT M04/M04 A3029 RMK A01 T10381044  RH  096%=      5-min Rain = 0
KWOS 141110Z 11008KT M04/M04 A3029 RMK A01 T10381044  RH  096%=      5-min Rain = 0
KWOS 141115Z 11006KT M04/M04 A3029 RMK A01 T10381043  RH  096%=      5-min Rain = 0
KWOS 141120Z 11007KT M04/M04 A3029 RMK A01 T10381044  RH  096%=      5-min Rain = 0
KWOS 141125Z 11007KT M04/M04 A3029 RMK A01 T10381044  RH  096%=      5-min Rain = 0
KWOS 141130Z 12008KT M04/M05 A3029 RMK A01 T10391045  RH  096%=      5-min Rain = 0
KWOS 141135Z 11008KT M04/M05 A3029 RMK A01 T10391046  RH  095%=      5-min Rain = 0
KWOS 141140Z 11008KT M04/M05 A3029 RMK A01 T10391047  RH  095%=      5-min Rain = 0
KWOS 141145Z 12008KT M04/M05 A3029 RMK A01 T10401047  RH  095%=      5-min Rain = 0
KWOS 141150Z 12007KT M04/M05 A3029 RMK A01 T10401047  RH  095%=      5-min Rain = 0
KWOS 141155Z 12007KT M04/M05 A3029 RMK A01 T10391047  RH  095%=      5-min Rain = 0
KWOS 141200Z 12007KT M04/M05 A3029 RMK A01 T10401047  RH  095%=      5-min Rain = 0
KWOS 141205Z 12007KT M04/M05 A3029 RMK A01 T10401047  RH  095%=      5-min Rain = 0
KWOS 141210Z 13007KT M04/M05 A3029 RMK A01 T10391047  RH  095%=      5-min Rain = 0
KWOS 141215Z 12007KT M04/M05 A3029 RMK A01 T10401048  RH  094%=      5-min Rain = 0
KWOS 141220Z 13007KT M04/M05 A3029 RMK A01 T10391048  RH  094%=      5-min Rain = 0
KWOS 141225Z 13007KT M04/M05 A3029 RMK A01 T10391047  RH  094%=      5-min Rain = 0
KWOS 141230Z 13007KT M04/M05 A3029 RMK A01 T10401049  RH  094%=      5-min Rain = 0
KWOS 141235Z 13007KT M04/M05 A3029 RMK A01 T10401049  RH  094%=      5-min Rain = 0
KWOS 141240Z 13007KT M04/M05 A3029 RMK A01 T10391049  RH  093%=      5-min Rain = 0
KWOS 141245Z 12007KT M04/M05 A3029 RMK A01 T10391049  RH  093%=      5-min Rain = 0
KWOS 141250Z 12007KT M04/M05 A3029 RMK A01 T10391049  RH  094%=      5-min Rain = 0
KWOS 141255Z 13007KT M04/M05 A3029 RMK A01 T10391049  RH  094%=      5-min Rain = 0
KWOS 141300Z 13007KT M04/M05 A3029 RMK A01 T10391049  RH  093%=      5-min Rain = 0
KWOS 141305Z 13007KT M04/M05 A303 RMK A01 T10401050  RH  093%=      5-min Rain = 0
KWOS 141310Z 13007KT M04/M05 A303 RMK A01 T10401050  RH  093%=      5-min Rain = 0
KWOS 141315Z 13007KT M04/M05 A303 RMK A01 T10411050  RH  093%=      5-min Rain = 0
KWOS 141320Z 13007KT M04/M05 A303 RMK A01 T10401050  RH  093%=      5-min Rain = 0
KWOS 141325Z 13007KT M04/M05 A303 RMK A01 T10401050  RH  093%=      5-min Rain = 0
KWOS 141330Z 13008KT M04/M05 A303 RMK A01 T10411050  RH  093%=      5-min Rain = 0
KWOS 141335Z 13007KT M04/M05 A303 RMK A01 T10411050  RH  094%=      5-min Rain = 0
KWOS 141340Z 14008KT M04/M05 A3031 RMK A01 T10411050  RH  094%=      5-min Rain = 0
KWOS 141345Z 13008KT M04/M05 A3031 RMK A01 T10411049  RH  094%=      5-min Rain = 0
KWOS 141350Z 13008KT M04/M05 A3031 RMK A01 T10411049  RH  095%=      5-min Rain = 0
KWOS 141355Z 13008KT M04/M05 A3031 RMK A01 T10411048  RH  095%=      5-min Rain = 0
KWOS 141400Z 13008KT M04/M05 A303 RMK A01 T10411048  RH  095%=      5-min Rain = 0
KWOS 141405Z 13008KT M04/M05 A303 RMK A01 T10411048  RH  095%=      5-min Rain = 0
KWOS 141410Z 13007KT M04/M05 A303 RMK A01 T10411047  RH  096%=      5-min Rain = 0
KWOS 141415Z 14007KT M04/M05 A303 RMK A01 T10411047  RH  096%=      5-min Rain = 0
KWOS 141420Z 14008KT M04/M05 A3031 RMK A01 T10401045  RH  096%=      5-min Rain = 0
KWOS 141425Z 14008KT M04/M05 A3031 RMK A01 T10401045  RH  097%=      5-min Rain = 0
KWOS 141430Z 13007KT M04/M04 A3031 RMK A01 T10391043  RH  097%=      5-min Rain = 0
KWOS 141435Z 14008KT M04/M04 A3031 RMK A01 T10391043  RH  097%=      5-min Rain = 0
KWOS 141440Z 14008KT M04/M04 A3031 RMK A01 T10381042  RH  098%=      5-min Rain = 0
KWOS 141445Z 14007KT M04/M04 A3031 RMK A01 T10371041  RH  098%=      5-min Rain = 0
KWOS 141450Z 14008KT M04/M04 A3031 RMK A01 T10371040  RH  098%=      5-min Rain = 0
KWOS 141455Z 13007KT M04/M04 A3031 RMK A01 T10361039  RH  098%=      5-min Rain = 0
KWOS 141500Z 14007KT M04/M04 A3031 RMK A01 T10351038  RH  099%=      5-min Rain = 0
KWOS 141505Z 14008KT M03/M04 A3031 RMK A01 T10341037  RH  099%=      5-min Rain = 0
KWOS 141510Z 14006KT M03/M04 A3031 RMK A01 T10341036  RH  099%=      5-min Rain = 0
KWOS 141515Z 14008KT M03/M04 A3031 RMK A01 T10331035  RH  099%=      5-min Rain = 0
KWOS 141520Z 14008KT M03/M03 A3031 RMK A01 T10321034  RH  099%=      5-min Rain = 0
KWOS 141525Z 15009KT M03/M03 A3031 RMK A01 T10301032  RH  099%=      5-min Rain = 0
KWOS 141530Z 15010KT M03/M03 A3031 RMK A01 T10291030  RH  099%=      5-min Rain = 0
KWOS 141535Z 14007KT M03/M03 A3031 RMK A01 T10281030  RH  099%=      5-min Rain = 0
KWOS 141540Z 15009KT M03/M03 A3031 RMK A01 T10281030  RH  099%=      5-min Rain = 0
KWOS 141545Z 15009KT M03/M03 A3031 RMK A01 T10281029  RH  100%=      5-min Rain = 0
KWOS 141550Z 15009KT M03/M03 A3031 RMK A01 T10271028  RH  100%=      5-min Rain = 0
KWOS 141555Z 15009KT M03/M03 A3031 RMK A01 T10261028  RH  100%=      5-min Rain = 0
KWOS 141600Z 15009KT M03/M03 A3031 RMK A01 T10251026  RH  100%=      5-min Rain = 0
KWOS 141605Z 15009KT M02/M03 A3031 RMK A01 T10241025  RH  100%=      5-min Rain = 0
KWOS 141610Z 15008KT M02/M03 A3031 RMK A01 T10241025  RH  100%=      5-min Rain = 0
KWOS 141615Z 15009KT M02/M03 A3031 RMK A01 T10241025  RH  100%=      5-min Rain = 0
KWOS 141620Z 16007KT M02/M02 A3031 RMK A01 T10221024  RH  100%=      5-min Rain = 0
KWOS 141625Z 16008KT M02/M02 A3031 RMK A01 T10221023  RH  100%=      5-min Rain = 0
KWOS 141630Z 15009KT M02/M02 A303 RMK A01 T10221023  RH  100%=      5-min Rain = 0
KWOS 141635Z 14009KT M02/M02 A303 RMK A01 T10201022  RH  100%=      5-min Rain = 0
KWOS 141640Z 16008KT M02/M02 A303 RMK A01 T10201021  RH  100%=      5-min Rain = 0
KWOS 141645Z 15009KT M02/M02 A303 RMK A01 T10191020  RH  100%=      5-min Rain = 0
KWOS 141650Z 15009KT M02/M02 A303 RMK A01 T10191020  RH  100%=      5-min Rain = 0
KWOS 141655Z 16008KT M02/M02 A303 RMK A01 T10181019  RH  100%=      5-min Rain = 0
KWOS 141700Z 16007KT M02/M02 A303 RMK A01 T10181019  RH  100%=      5-min Rain = 0
KWOS 141705Z 15009KT M02/M02 A303 RMK A01 T10171018  RH  100%=      5-min Rain = 0
KWOS 141710Z 15009KT M02/M02 A303 RMK A01 T10171019  RH  100%=      5-min Rain = 0
KWOS 141715Z 16009KT M02/M02 A303 RMK A01 T10171018  RH  100%=      5-min Rain = 0
KWOS 141720Z 16009KT M02/M02 A303 RMK A01 T10171018  RH  100%=      5-min Rain = 0
KWOS 141725Z 17008KT M02/M02 A303 RMK A01 T10161018  RH  100%=      5-min Rain = 0
KWOS 141730Z 17008KT M02/M02 A303 RMK A01 T10161017  RH  100%=      5-min Rain = 0
KWOS 141735Z 16009KT M02/M02 A3029 RMK A01 T10151016  RH  100%=      5-min Rain = 0
KWOS 141740Z 17007KT M01/M02 A3029 RMK A01 T10141016  RH  100%=      5-min Rain = 0
KWOS 141745Z 17007KT M01/M02 A3029 RMK A01 T10141015  RH  100%=      5-min Rain = 0
KWOS 141750Z 16008KT M01/M02 A3029 RMK A01 T10141015  RH  100%=      5-min Rain = 0
KWOS 141755Z 16007KT M01/M02 A3029 RMK A01 T10141015  RH  100%=      5-min Rain = 0
KWOS 141800Z 17009KT M01/M01 A3029 RMK A01 T10121013  RH  100%=      5-min Rain = 0
KWOS 141805Z 17009KT M01/M01 A3029 RMK A01 T10111012  RH  100%=      5-min Rain = 0
KWOS 141810Z 17010KT M01/M01 A3029 RMK A01 T10101012  RH  100%=      5-min Rain = 0
KWOS 141815Z 18009KT M01/M01 A3028 RMK A01 T10091011  RH  100%=      5-min Rain = 0
KWOS 141820Z 18010KT M01/M01 A3028 RMK A01 T10081009  RH  100%=      5-min Rain = 0
KWOS 141825Z 18011KT M01/M01 A3028 RMK A01 T10071009  RH  100%=      5-min Rain = 0
KWOS 141830Z 18010KT M01/M01 A3028 RMK A01 T10061008  RH  100%=      5-min Rain = 0
KWOS 141835Z 19011KT M01/M01 A3027 RMK A01 T10061007  RH  100%=      5-min Rain = 0
KWOS 141840Z 19011KT M01/M01 A3027 RMK A01 T10051007  RH  099%=      5-min Rain = 0
KWOS 141845Z 19011KT M01/M01 A3027 RMK A01 T10061009  RH  099%=      5-min Rain = 0
KWOS 141850Z 18012KT M01/M01 A3027 RMK A01 T10051009  RH  098%=      5-min Rain = 0
KWOS 141855Z 19011KT M00/M01 A3026 RMK A01 T10041009  RH  097%=      5-min Rain = 0
KWOS 141900Z 19011KT M00/M01 A3026 RMK A01 T10021009  RH  096%=      5-min Rain = 0
KWOS 141905Z 18010KT M00/M01 A3025 RMK A01 T10011010  RH  095%=      5-min Rain = 0
KWOS 141910Z 19010KT M00/M01 A3025 RMK A01 T10011010  RH  095%=      5-min Rain = 0
KWOS 141915Z 19011KT M00/M01 A3025 RMK A01 T10011010  RH  094%=      5-min Rain = 0
KWOS 141920Z 19011KT 00/01 A3025 RMK A01 T00000-10  RH  094%=      5-min Rain = 0
KWOS 141925Z 19010KT 00/M01 A3025 RMK A01 T00021009  RH  093%=      5-min Rain = 0
KWOS 141930Z 19012G17KT 00/M01 A3025 RMK A01 T00011011  RH  093%=      5-min Rain = 0
KWOS 141935Z 19010KT 00/01 A3025 RMK A01 T00-00-10  RH  094%=      5-min Rain = 0
KWOS 141940Z 19012KT 00/M01 A3025 RMK A01 T00021009  RH  094%=      5-min Rain = 0
KWOS 141945Z 19010KT 00/M01 A3024 RMK A01 T00011008  RH  094%=      5-min Rain = 0
KWOS 141950Z 20012KT 00/M01 A3024 RMK A01 T00031008  RH  093%=      5-min Rain = 0
KWOS 141955Z 19011KT 00/M01 A3024 RMK A01 T00021009  RH  093%=      5-min Rain = 0
KWOS 142000Z 19011KT 00/M01 A3023 RMK A01 T00021007  RH  094%=      5-min Rain = 0
KWOS 142005Z 19011KT 00/M01 A3023 RMK A01 T00031007  RH  094%=      5-min Rain = 0
KWOS 142010Z 18010KT 00/M01 A3022 RMK A01 T00041006  RH  094%=      5-min Rain = 0
KWOS 142015Z 18012G17KT 00/M01 A3022 RMK A01 T00041006  RH  094%=      5-min Rain = 0
KWOS 142020Z 19011KT 01/M01 A3022 RMK A01 T00051006  RH  093%=      5-min Rain = 0
KWOS 142025Z 19011KT 01/M01 A3021 RMK A01 T00061005  RH  093%=      5-min Rain = 0
KWOS 142030Z 19011KT 01/M00 A3021 RMK A01 T00071004  RH  093%=      5-min Rain = 0
KWOS 142035Z 19011KT 01/M00 A3021 RMK A01 T00081004  RH  092%=      5-min Rain = 0
KWOS 142040Z 19011KT 01/M00 A302 RMK A01 T00091004  RH  092%=      5-min Rain = 0
KWOS 142045Z 19011KT 01/M00 A302 RMK A01 T00111003  RH  091%=      5-min Rain = 0
KWOS 142050Z 19011KT 01/M00 A302 RMK A01 T00111004  RH  090%=      5-min Rain = 0
KWOS 142055Z 18010KT 01/M00 A302 RMK A01 T00131004  RH  090%=      5-min Rain = 0
KWOS 142100Z 18012KT 01/M00 A3019 RMK A01 T00121004  RH  090%=      5-min Rain = 0
KWOS 142105Z 19011KT 01/M00 A3019 RMK A01 T00131003  RH  090%=      5-min Rain = 0
KWOS 142110Z 18011KT 02/M00 A3019 RMK A01 T00151003  RH  089%=      5-min Rain = 0
KWOS 142115Z 19011KT 02/M00 A3019 RMK A01 T00151003  RH  089%=      5-min Rain = 0
KWOS 142120Z 19012KT 02/M00 A3019 RMK A01 T00161003  RH  088%=      5-min Rain = 0
KWOS 142125Z 18011KT 02/M00 A3019 RMK A01 T00171002  RH  088%=      5-min Rain = 0
KWOS 142130Z 17012KT 02/M00 A3019 RMK A01 T00151003  RH  089%=      5-min Rain = 0
KWOS 142135Z 18011KT 02/M00 A3019 RMK A01 T00151003  RH  089%=      5-min Rain = 0
KWOS 142140Z 18012KT 02/M00 A3018 RMK A01 T00181001  RH  088%=      5-min Rain = 0
KWOS 142145Z 17011KT 02/M00 A3018 RMK A01 T00171003  RH  087%=      5-min Rain = 0
KWOS 142150Z 17011KT 02/M00 A3018 RMK A01 T00181001  RH  088%=      5-min Rain = 0
KWOS 142155Z 18011G17KT 02/M00 A3018 RMK A01 T00191001  RH  088%=      5-min Rain = 0
KWOS 142200Z 18011KT 02/00 A3018 RMK A01 T002000-0  RH  088%=      5-min Rain = 0
KWOS 142205Z 18011G16KT 02/M00 A3018 RMK A01 T00201001  RH  087%=      5-min Rain = 0
KWOS 142210Z 17010G15KT 02/00 A3017 RMK A01 T002000-0  RH  087%=      5-min Rain = 0
KWOS 142215Z 17011KT 02/M00 A3017 RMK A01 T00191001  RH  088%=      5-min Rain = 0
KWOS 142220Z 18011G16KT 02/M00 A3017 RMK A01 T00181001  RH  088%=      5-min Rain = 0
KWOS 142225Z 17012KT 02/M00 A3017 RMK A01 T00181001  RH  088%=      5-min Rain = 0
KWOS 142230Z 18011KT 02/00 A3017 RMK A01 T001900-0  RH  088%=      5-min Rain = 0
KWOS 142235Z 18012KT 02/M00 A3017 RMK A01 T00191001  RH  088%=      5-min Rain = 0
KWOS 142240Z 17010KT 02/M00 A3017 RMK A01 T00181001  RH  088%=      5-min Rain = 0
KWOS 142245Z 18011KT 02/00 A3017 RMK A01 T001900-0  RH  088%=      5-min Rain = 0
KWOS 142250Z 19011KT 02/M00 A3017 RMK A01 T00201001  RH  087%=      5-min Rain = 0
KWOS 142255Z 17011KT 02/M00 A3017 RMK A01 T00201001  RH  087%=      5-min Rain = 0
KWOS 142300Z 17011KT 02/00 A3017 RMK A01 T00210000  RH  088%=      5-min Rain = 0
KWOS 142305Z 17012KT 02/00 A3017 RMK A01 T002000-0  RH  088%=      5-min Rain = 0
KWOS 142310Z 18011KT 02/00 A3017 RMK A01 T001900-0  RH  088%=      5-min Rain = 0
KWOS 142315Z 17012KT 02/00 A3016 RMK A01 T00190000  RH  088%=      5-min Rain = 0
KWOS 142320Z 17011KT 02/M00 A3016 RMK A01 T00181001  RH  089%=      5-min Rain = 0
KWOS 142325Z 17010KT 02/00 A3016 RMK A01 T001800-0  RH  089%=      5-min Rain = 0
KWOS 142330Z 17011KT 02/00 A3016 RMK A01 T00190000  RH  088%=      5-min Rain = 0
KWOS 142335Z 17011KT 02/00 A3016 RMK A01 T00190001  RH  089%=      5-min Rain = 0
KWOS 142340Z 17013G18KT 02/00 A3016 RMK A01 T00190000  RH  089%=      5-min Rain = 0
KWOS 142345Z 17012KT 02/00 A3016 RMK A01 T00190001  RH  089%=      5-min Rain = 0
KWOS 142350Z 18013KT 02/00 A3015 RMK A01 T00190001  RH  089%=      5-min Rain = 0
KWOS 142355Z 18012KT 02/00 A3015 RMK A01 T00180001  RH  089%=      5-min Rain = 0
KWOS 150000Z 18011G16KT 02/00 A3015 RMK A01 T00190002  RH  090%=      5-min Rain = 0
KWOS 150005Z 18011KT 02/00 A3015 RMK A01 T00190002  RH  089%=      5-min Rain = 0
KWOS 150010Z 18010KT 02/00 A3015 RMK A01 T00190001  RH  089%=      5-min Rain = 0
KWOS 150015Z 18010KT 02/00 A3015 RMK A01 T00180002  RH  090%=      5-min Rain = 0
KWOS 150020Z 18010KT 02/00 A3015 RMK A01 T00170001  RH  090%=      5-min Rain = 0
KWOS 150025Z 19009KT 02/00 A3015 RMK A01 T00160000  RH  090%=      5-min Rain = 0
KWOS 150030Z 19008KT 02/00 A3015 RMK A01 T001500-0  RH  091%=      5-min Rain = 0
KWOS 150035Z 19007KT 01/M00 A3015 RMK A01 T00131001  RH  091%=      5-min Rain = 0
KWOS 150040Z 19006KT 01/M00 A3015 RMK A01 T00111003  RH  091%=      5-min Rain = 0
KWOS 150045Z 19006KT 01/M00 A3015 RMK A01 T00091004  RH  092%=      5-min Rain = 0
KWOS 150050Z 19006KT 01/M01 A3015 RMK A01 T00071005  RH  092%=      5-min Rain = 0
KWOS 150055Z 18006KT 01/M01 A3015 RMK A01 T00071005  RH  093%=      5-min Rain = 0
KWOS 150100Z 18006KT 01/M01 A3015 RMK A01 T00061005  RH  093%=      5-min Rain = 0
KWOS 150105Z 18005KT 01/M01 A3015 RMK A01 T00061005  RH  093%=      5-min Rain = 0
KWOS 150110Z 18004KT 01/M01 A3015 RMK A01 T00051006  RH  094%=      5-min Rain = 0
KWOS 150115Z 18004KT 00/M01 A3015 RMK A01 T00041006  RH  094%=      5-min Rain = 0
KWOS 150120Z 19004KT 00/M01 A3015 RMK A01 T00031007  RH  094%=      5-min Rain = 0
KWOS 150125Z 19004KT 00/M01 A3015 RMK A01 T00031007  RH  094%=      5-min Rain = 0
KWOS 150130Z 19003KT M00/M01 A3015 RMK A01 T10011012  RH  094%=      5-min Rain = 0
KWOS 150135Z 18003KT M00/M01 A3015 RMK A01 T10041013  RH  094%=      5-min Rain = 0
KWOS 150140Z 19003KT M00/M01 A3015 RMK A01 T10041013  RH  095%=      5-min Rain = 0
KWOS 150145Z 19003KT M01/M01 A3015 RMK A01 T10051014  RH  095%=      5-min Rain = 0
KWOS 150150Z 18003KT M01/M02 A3015 RMK A01 T10071015  RH  095%=      5-min Rain = 0
KWOS 150155Z 18003KT M01/M02 A3015 RMK A01 T10071015  RH  096%=      5-min Rain = 0
KWOS 150200Z 20002KT M01/M02 A3015 RMK A01 T10081016  RH  096%=      5-min Rain = 0
KWOS 150205Z 20003KT M01/M02 A3015 RMK A01 T10091015  RH  096%=      5-min Rain = 0
KWOS 150210Z 18003KT M01/M02 A3015 RMK A01 T10091015  RH  096%=      5-min Rain = 0
KWOS 150215Z 11002KT M01/M02 A3015 RMK A01 T10131020  RH  096%=      5-min Rain = 0
KWOS 150220Z 07003KT M02/M02 A3015 RMK A01 T10161022  RH  097%=      5-min Rain = 0
KWOS 150225Z 07004KT M02/M02 A3015 RMK A01 T10161021  RH  097%=      5-min Rain = 0
KWOS 150230Z 08004KT M02/M02 A3015 RMK A01 T10161021  RH  097%=      5-min Rain = 0
KWOS 150235Z 10003KT M02/M02 A3015 RMK A01 T10161020  RH  098%=      5-min Rain = 0
KWOS 150240Z 12004KT M01/M02 A3015 RMK A01 T10141018  RH  098%=      5-min Rain = 0
KWOS 150245Z 13005KT M01/M02 A3015 RMK A01 T10131017  RH  098%=      5-min Rain = 0
KWOS 150250Z 13004KT M01/M02 A3015 RMK A01 T10141017  RH  098%=      5-min Rain = 0
KWOS 150255Z 14004KT M01/M02 A3015 RMK A01 T10141018  RH  098%=      5-min Rain = 0
KWOS 150300Z 16004KT M01/M02 A3015 RMK A01 T10111015  RH  099%=      5-min Rain = 0
KWOS 150305Z 18004KT M01/M01 A3015 RMK A01 T10051008  RH  099%=      5-min Rain = 0
KWOS 150310Z 18005KT M00/M01 A3015 RMK A01 T10031005  RH  099%=      5-min Rain = 0
KWOS 150315Z 19005KT M00/M01 A3015 RMK A01 T10021005  RH  099%=      5-min Rain = 0
KWOS 150320Z 19004KT M00/M01 A3015 RMK A01 T10031007  RH  098%=      5-min Rain = 0
KWOS 150325Z 19005KT M01/M01 A3015 RMK A01 T10071011  RH  098%=      5-min Rain = 0
KWOS 150330Z 18005KT M01/M01 A3015 RMK A01 T10051009  RH  098%=      5-min Rain = 0
KWOS 150335Z 18005KT M00/M01 A3015 RMK A01 T10041008  RH  098%=      5-min Rain = 0
KWOS 150340Z 18006KT M00/M01 A3015 RMK A01 T10041007  RH  098%=      5-min Rain = 0
KWOS 150345Z 18007KT M00/M01 A3015 RMK A01 T10031007  RH  098%=      5-min Rain = 0
KWOS 150350Z 18006KT M00/M01 A3015 RMK A01 T10021006  RH  098%=      5-min Rain = 0
KWOS 150355Z 18006KT M00/M01 A3015 RMK A01 T10041009  RH  098%=      5-min Rain = 0
KWOS 150400Z 19005KT M01/M01 A3015 RMK A01 T10051009  RH  098%=      5-min Rain = 0
KWOS 150405Z 19004KT M00/M01 A3015 RMK A01 T10031008  RH  098%=      5-min Rain = 0
KWOS 150410Z 18005KT M00/M01 A3015 RMK A01 T10031008  RH  098%=      5-min Rain = 0
KWOS 150415Z 17005KT M00/M01 A3015 RMK A01 T10021007  RH  098%=      5-min Rain = 0
KWOS 150420Z 17006KT 00/01 A3014 RMK A01 T000000-5  RH  098%=      5-min Rain = 0
KWOS 150425Z 17006KT 00/M00 A3014 RMK A01 T00011004  RH  098%=      5-min Rain = 0
KWOS 150430Z 17006KT 00/M00 A3014 RMK A01 T00031003  RH  097%=      5-min Rain = 0
KWOS 150435Z 18007KT 00/M00 A3014 RMK A01 T00041002  RH  097%=      5-min Rain = 0
KWOS 150440Z 18008KT 01/00 A3014 RMK A01 T00060001  RH  097%=      5-min Rain = 0
KWOS 150445Z 18008KT 01/00 A3014 RMK A01 T00070001  RH  097%=      5-min Rain = 0
KWOS 150450Z 18008KT 01/00 A3014 RMK A01 T00090002  RH  096%=      5-min Rain = 0
KWOS 150455Z 18008KT 01/00 A3013 RMK A01 T00090002  RH  096%=      5-min Rain = 0
KWOS 150500Z 18009KT 01/00 A3013 RMK A01 T00110003  RH  096%=      5-min Rain = 0
KWOS 150505Z 18010KT 01/00 A3013 RMK A01 T00100002  RH  096%=      5-min Rain = 0
KWOS 150510Z 18011KT 01/01 A3013 RMK A01 T00120005  RH  096%=      5-min Rain = 0
KWOS 150515Z 18011KT 01/01 A3013 RMK A01 T00140005  RH  095%=      5-min Rain = 0
KWOS 150520Z 18011KT 01/00 A3013 RMK A01 T00130004  RH  095%=      5-min Rain = 0
KWOS 150525Z 18012KT 02/01 A3012 RMK A01 T00150006  RH  095%=      5-min Rain = 0
KWOS 150530Z 19012KT 02/01 A3012 RMK A01 T00150006  RH  095%=      5-min Rain = 0
KWOS 150535Z 19012KT 02/01 A3012 RMK A01 T00160006  RH  095%=      5-min Rain = 0
KWOS 150540Z 18012KT 02/01 A3012 RMK A01 T00170007  RH  094%=      5-min Rain = 0
KWOS 150545Z 19012KT 02/01 A3012 RMK A01 T00170007  RH  095%=      5-min Rain = 0
KWOS 150550Z 19011KT 02/01 A3012 RMK A01 T00170007  RH  094%=      5-min Rain = 0
KWOS 150555Z 19011KT 02/01 A3011 RMK A01 T00180009  RH  095%=      5-min Rain = 0

Page generated in 0.0097 seconds.